Time;durP1;ratioP1;P1;durP2;ratioP2;P2;SDS_P1;SDS_P2;PMS_P1;PMS_P2;Temp;Humidity;BMP_temperature;BMP_pressure;BME280_temperature;BME280_humidity;BME280_pressure;Samples;Min_cycle;Max_cycle;Signal;HPM_P1;HPM_P2
2023/07/11 00:00:21;;;;;;;17.25;16.60;;;22.80;99.90;;;;;;5031633;28;20211;-69
2023/07/11 00:02:50;;;;;;;11.30;10.90;;;22.70;99.90;;;;;;5033199;28;20608;-68
2023/07/11 00:05:18;;;;;;;18.95;18.25;;;22.70;99.90;;;;;;5033404;28;20209;-68
2023/07/11 00:07:46;;;;;;;19.50;18.80;;;22.60;99.90;;;;;;5033991;28;20200;-70
2023/07/11 00:10:15;;;;;;;27.67;26.58;;;22.50;99.90;;;;;;5031647;28;20208;-68
2023/07/11 00:12:42;;;;;;;12.00;11.60;;;22.50;99.90;;;;;;5041283;28;20224;-67
2023/07/11 00:15:12;;;;;;;10.75;10.35;;;22.50;99.90;;;;;;5055213;28;20207;-68
2023/07/11 00:17:40;;;;;;;13.77;13.27;;;22.40;99.90;;;;;;5037870;28;20208;-65
2023/07/11 00:20:09;;;;;;;13.23;12.63;;;22.40;99.90;;;;;;5031961;28;20206;-67
2023/07/11 00:22:36;;;;;;;12.25;11.82;;;22.40;99.90;;;;;;5028829;28;20230;-69
2023/07/11 00:25:04;;;;;;;21.33;20.40;;;22.30;99.90;;;;;;5032846;28;20205;-68
2023/07/11 00:27:31;;;;;;;10.82;10.43;;;22.30;99.90;;;;;;5033762;28;20231;-68
2023/07/11 00:29:58;;;;;;;12.57;12.18;;;22.20;99.90;;;;;;5032852;28;20347;-66
2023/07/11 00:32:25;;;;;;;10.13;9.82;;;22.20;99.90;;;;;;5034044;28;20208;-67
2023/07/11 00:34:53;;;;;;;9.57;9.27;;;22.20;99.90;;;;;;5032513;28;20700;-66
2023/07/11 00:37:20;;;;;;;10.23;9.82;;;22.20;99.90;;;;;;5032268;28;20573;-69
2023/07/11 00:39:47;;;;;;;10.73;10.32;;;22.20;99.90;;;;;;5031066;28;20211;-67
2023/07/11 00:42:14;;;;;;;12.65;12.15;;;22.10;99.90;;;;;;5031896;28;20251;-67
2023/07/11 00:44:52;;;;;;;9.23;8.93;;;22.00;99.90;;;;;;5031527;28;20578;-67
2023/07/11 00:47:19;;;;;;;9.32;9.02;;;21.90;99.90;;;;;;5032325;28;20214;-66
2023/07/11 00:49:47;;;;;;;10.50;10.10;;;21.90;99.90;;;;;;5031194;28;20210;-68
2023/07/11 00:52:17;;;;;;;9.25;8.85;;;21.90;99.90;;;;;;5030803;28;20252;-67
2023/07/11 00:54:48;;;;;;;9.15;8.85;;;21.90;99.90;;;;;;5031575;28;20704;-68
2023/07/11 00:57:16;;;;;;;11.35;10.95;;;21.90;99.90;;;;;;5031899;28;20205;-68
2023/07/11 00:59:44;;;;;;;9.25;8.95;;;21.90;99.90;;;;;;5030197;28;20775;-67
2023/07/11 01:02:15;;;;;;;9.07;8.77;;;22.00;99.90;;;;;;5030869;28;20239;-66
2023/07/11 01:04:42;;;;;;;20.42;19.58;;;22.00;99.90;;;;;;5031005;28;20195;-67
2023/07/11 01:07:11;;;;;;;9.65;9.25;;;22.00;99.90;;;;;;5031207;28;20204;-67
2023/07/11 01:09:39;;;;;;;9.80;9.40;;;21.90;99.90;;;;;;5030137;28;20659;-68
2023/07/11 01:12:12;;;;;;;9.65;9.35;;;21.90;99.90;;;;;;5030832;28;20231;-68
2023/07/11 01:14:40;;;;;;;10.18;9.77;;;21.80;99.90;;;;;;5034618;28;20233;-68
2023/07/11 01:17:27;;;;;;;9.23;8.93;;;21.80;99.90;;;;;;5033025;28;20205;-68
2023/07/11 01:19:55;;;;;;;8.70;8.40;;;21.80;99.90;;;;;;5029561;28;20310;-66
2023/07/11 01:22:24;;;;;;;9.40;9.10;;;21.70;99.90;;;;;;5021252;28;20279;-67
2023/07/11 01:24:51;;;;;;;8.70;8.40;;;21.70;99.90;;;;;;5037357;28;20247;-66
2023/07/11 01:27:19;;;;;;;9.50;9.20;;;21.70;99.90;;;;;;5030761;28;20211;-68
2023/07/11 01:29:46;;;;;;;11.02;10.63;;;21.70;99.90;;;;;;5028308;28;20282;-67
2023/07/11 01:32:13;;;;;;;10.43;10.07;;;21.60;99.90;;;;;;5030346;28;20232;-69
2023/07/11 01:34:40;;;;;;;10.45;10.05;;;21.60;99.90;;;;;;5034939;28;20280;-69
2023/07/11 01:37:07;;;;;;;9.35;9.05;;;21.70;99.90;;;;;;5033489;28;20571;-67
2023/07/11 01:39:35;;;;;;;10.98;10.57;;;21.60;99.90;;;;;;5028155;28;20200;-68
2023/07/11 01:42:02;;;;;;;9.00;8.70;;;21.50;99.90;;;;;;5029349;28;20242;-68
2023/07/11 01:44:30;;;;;;;8.73;8.43;;;21.40;99.90;;;;;;5029189;28;20204;-67
2023/07/11 01:46:57;;;;;;;9.15;8.85;;;21.30;99.90;;;;;;5029587;28;20209;-68
2023/07/11 01:49:24;;;;;;;9.20;8.80;;;21.30;99.90;;;;;;5028313;28;20306;-67
2023/07/11 01:52:03;;;;;;;9.93;9.52;;;21.40;99.90;;;;;;5028166;28;20769;-68
2023/07/11 01:54:30;;;;;;;8.88;8.57;;;21.30;99.90;;;;;;5030392;28;20291;-67
2023/07/11 01:56:59;;;;;;;8.85;8.55;;;21.30;99.90;;;;;;5030188;28;20207;-68
2023/07/11 01:59:25;;;;;;;8.73;8.43;;;21.40;99.90;;;;;;5031955;28;20208;-68
2023/07/11 02:01:52;;;;;;;9.48;9.18;;;21.40;99.90;;;;;;5048836;28;20231;-66
2023/07/11 02:04:21;;;;;;;9.15;8.85;;;21.40;99.90;;;;;;5050232;28;20658;-68
2023/07/11 02:06:48;;;;;;;9.40;9.10;;;21.40;99.90;;;;;;5051047;28;20645;-68
2023/07/11 02:09:15;;;;;;;9.20;8.90;;;21.40;99.90;;;;;;5050575;28;20200;-68
2023/07/11 02:11:42;;;;;;;9.20;8.80;;;21.40;99.90;;;;;;5051228;28;20317;-68
2023/07/11 02:14:10;;;;;;;11.20;10.80;;;21.40;99.90;;;;;;5049713;28;20220;-66
2023/07/11 02:16:37;;;;;;;12.45;12.05;;;21.30;99.90;;;;;;5049735;28;20211;-69
2023/07/11 02:19:04;;;;;;;8.68;8.38;;;21.30;99.90;;;;;;5049138;28;20285;-62
2023/07/11 02:21:31;;;;;;;8.40;8.10;;;21.30;99.90;;;;;;5050209;28;20234;-69
2023/07/11 02:23:57;;;;;;;9.45;9.05;;;21.40;99.90;;;;;;5050389;28;20582;-69
2023/07/11 02:26:27;;;;;;;10.70;10.30;;;21.40;99.90;;;;;;5050030;28;20226;-65
2023/07/11 02:28:53;;;;;;;8.70;8.40;;;21.40;99.90;;;;;;5049445;28;20662;-68
2023/07/11 02:31:21;;;;;;;9.25;8.95;;;21.40;99.90;;;;;;5048660;28;20232;-66
2023/07/11 02:33:49;;;;;;;10.07;9.77;;;21.40;99.90;;;;;;5049236;28;20778;-64
2023/07/11 02:36:16;;;;;;;10.07;9.68;;;21.40;99.90;;;;;;5052569;28;20208;-68
2023/07/11 02:38:43;;;;;;;10.02;9.73;;;21.40;99.90;;;;;;5051852;28;20262;-65
2023/07/11 02:41:10;;;;;;;9.32;9.02;;;21.30;99.90;;;;;;5035453;28;20267;-69
2023/07/11 02:43:36;;;;;;;9.18;8.88;;;21.30;99.90;;;;;;5034267;28;20612;-68
2023/07/11 02:46:03;;;;;;;9.65;9.35;;;21.30;99.90;;;;;;5034611;28;20209;-67
2023/07/11 02:48:31;;;;;;;8.38;8.07;;;21.30;99.90;;;;;;5034680;28;20201;-69
2023/07/11 02:50:58;;;;;;;8.80;8.50;;;21.30;99.90;;;;;;5033941;28;20239;-69
2023/07/11 02:53:25;;;;;;;9.35;9.05;;;21.40;99.90;;;;;;5043512;28;20687;-67
2023/07/11 02:55:54;;;;;;;9.18;8.88;;;21.40;99.90;;;;;;5053239;28;20292;-68
2023/07/11 02:58:21;;;;;;;9.07;8.77;;;21.50;99.90;;;;;;5056352;28;20218;-66
2023/07/11 03:00:48;;;;;;;9.30;9.00;;;21.50;99.90;;;;;;5054238;28;20326;-68
2023/07/11 03:03:15;;;;;;;9.20;8.80;;;21.60;99.90;;;;;;5053332;28;20207;-68
2023/07/11 03:05:45;;;;;;;9.25;8.95;;;21.50;99.90;;;;;;5056212;28;20210;-67
2023/07/11 03:08:12;;;;;;;9.45;9.05;;;21.50;99.90;;;;;;5044261;28;20216;-67
2023/07/11 03:10:39;;;;;;;8.70;8.40;;;21.50;99.90;;;;;;5032145;28;20744;-66
2023/07/11 03:13:06;;;;;;;9.48;9.18;;;21.50;99.90;;;;;;5034563;28;20641;-66
2023/07/11 03:15:34;;;;;;;8.90;8.60;;;21.40;99.90;;;;;;5039191;28;20226;-68
2023/07/11 03:18:01;;;;;;;8.95;8.65;;;21.40;99.90;;;;;;5032897;28;20208;-68
2023/07/11 03:20:28;;;;;;;8.95;8.65;;;21.40;99.90;;;;;;5032210;28;20235;-68
2023/07/11 03:22:57;;;;;;;8.93;8.63;;;21.40;99.90;;;;;;5031238;28;20214;-68
2023/07/11 03:25:24;;;;;;;8.98;8.68;;;21.40;99.90;;;;;;5032986;28;20207;-70
2023/07/11 03:27:51;;;;;;;9.40;9.10;;;21.40;99.90;;;;;;5039127;28;20311;-68
2023/07/11 03:30:18;;;;;;;12.18;11.77;;;21.40;99.90;;;;;;5032294;28;20201;-67
2023/07/11 03:32:44;;;;;;;8.75;8.45;;;21.40;99.90;;;;;;5032809;28;20700;-66
2023/07/11 03:35:11;;;;;;;9.25;8.95;;;21.30;99.90;;;;;;5033217;28;20229;-67
2023/07/11 03:37:38;;;;;;;10.23;9.85;;;21.30;99.90;;;;;;5032575;28;20209;-69
2023/07/11 03:40:08;;;;;;;9.50;9.20;;;21.30;99.90;;;;;;5031528;28;20205;-68
2023/07/11 03:42:34;;;;;;;9.02;8.73;;;21.30;99.90;;;;;;5031982;28;20212;-67
2023/07/11 03:45:01;;;;;;;9.00;8.70;;;21.30;99.90;;;;;;5032623;28;20667;-69
2023/07/11 03:47:28;;;;;;;8.98;8.68;;;21.30;99.90;;;;;;5031495;28;20597;-65
2023/07/11 03:49:55;;;;;;;9.50;9.10;;;21.30;99.90;;;;;;5030992;28;20213;-67
2023/07/11 03:52:23;;;;;;;9.35;9.05;;;21.30;99.90;;;;;;5032323;28;20225;-69
2023/07/11 03:54:50;;;;;;;9.20;8.90;;;21.20;99.90;;;;;;5032883;28;20231;-68
2023/07/11 03:57:18;;;;;;;9.73;9.43;;;21.20;99.90;;;;;;5033177;28;20619;-67
2023/07/11 03:59:46;;;;;;;9.48;9.18;;;21.10;99.90;;;;;;5032117;28;20307;-58
2023/07/11 04:02:12;;;;;;;9.55;9.20;;;21.20;99.90;;;;;;5028503;28;20239;-58
2023/07/11 04:04:39;;;;;;;9.23;8.93;;;21.50;99.90;;;;;;5031801;28;20196;-58
2023/07/11 04:07:07;;;;;;;9.80;9.50;;;21.80;99.90;;;;;;5031457;28;20208;-57
2023/07/11 04:09:34;;;;;;;9.40;9.00;;;21.90;99.90;;;;;;5032512;28;20211;-58
2023/07/11 04:12:01;;;;;;;9.48;9.18;;;22.00;99.90;;;;;;5029121;28;20228;-58
2023/07/11 04:14:29;;;;;;;10.77;10.38;;;22.10;99.90;;;;;;5031572;28;20201;-57
2023/07/11 04:16:56;;;;;;;10.38;9.98;;;22.20;99.90;;;;;;5032379;28;20296;-59
2023/07/11 04:19:23;;;;;;;10.10;9.70;;;22.30;99.90;;;;;;5031295;28;20210;-58
2023/07/11 04:21:49;;;;;;;11.05;10.65;;;22.40;99.90;;;;;;5028113;28;20217;-58
2023/07/11 04:24:16;;;;;;;14.55;14.02;;;22.50;99.90;;;;;;5026971;28;20727;-59
2023/07/11 04:26:43;;;;;;;12.60;12.20;;;22.60;99.90;;;;;;5030767;28;20204;-58
2023/07/11 04:29:10;;;;;;;10.00;9.60;;;22.80;99.90;;;;;;5029623;28;20201;-59
2023/07/11 04:31:38;;;;;;;11.00;10.60;;;22.80;99.90;;;;;;5031994;28;20228;-59
2023/07/11 04:34:05;;;;;;;11.65;11.25;;;22.80;99.90;;;;;;5025897;28;20217;-58
2023/07/11 04:36:32;;;;;;;10.40;10.00;;;22.80;99.90;;;;;;5040100;28;20204;-59
2023/07/11 04:39:00;;;;;;;9.98;9.68;;;22.80;99.90;;;;;;5030046;28;20207;-59
2023/07/11 04:41:26;;;;;;;14.13;13.63;;;22.90;99.90;;;;;;5029196;28;20656;-57
2023/07/11 04:43:54;;;;;;;10.43;10.02;;;22.90;99.90;;;;;;5030893;28;20209;-57
2023/07/11 04:46:20;;;;;;;10.20;9.77;;;22.90;99.90;;;;;;5030661;28;20212;-57
2023/07/11 04:48:49;;;;;;;12.63;12.13;;;23.00;99.90;;;;;;5036232;28;20200;-57
2023/07/11 04:51:15;;;;;;;12.30;11.80;;;23.10;99.90;;;;;;5034411;28;20224;-57
2023/07/11 04:53:42;;;;;;;12.60;12.05;;;23.10;99.90;;;;;;5031031;28;20204;-58
2023/07/11 04:56:10;;;;;;;10.07;9.68;;;23.20;99.90;;;;;;5030855;28;20216;-58
2023/07/11 04:58:37;;;;;;;10.30;9.90;;;23.20;99.90;;;;;;5030514;28;20287;-56
2023/07/11 05:01:06;;;;;;;10.98;10.57;;;23.10;99.90;;;;;;5028328;28;20224;-58
2023/07/11 05:03:34;;;;;;;12.20;11.73;;;23.20;99.90;;;;;;5030921;28;20201;-57
2023/07/11 05:06:03;;;;;;;10.90;10.50;;;23.20;99.90;;;;;;5030947;28;20193;-57
2023/07/11 05:08:30;;;;;;;10.07;9.77;;;23.20;99.90;;;;;;5031010;28;20205;-57
2023/07/11 05:11:01;;;;;;;10.00;9.70;;;23.20;99.90;;;;;;5029347;28;20706;-58
2023/07/11 05:13:29;;;;;;;10.80;10.40;;;23.20;99.90;;;;;;5030978;28;20224;-60
2023/07/11 05:15:59;;;;;;;11.23;10.73;;;23.40;99.90;;;;;;5030593;28;20267;-57
2023/07/11 05:18:26;;;;;;;10.55;10.15;;;23.50;99.90;;;;;;5030259;28;20789;-67
2023/07/11 05:20:55;;;;;;;9.93;9.55;;;23.50;99.90;;;;;;5029428;28;20254;-66
2023/07/11 05:23:24;;;;;;;10.65;10.25;;;23.50;99.90;;;;;;5030351;28;20205;-69
2023/07/11 05:25:51;;;;;;;9.98;9.68;;;23.40;99.90;;;;;;5030222;28;20241;-67
2023/07/11 05:28:19;;;;;;;11.10;10.70;;;23.50;99.90;;;;;;5030533;28;20300;-67
2023/07/11 05:30:46;;;;;;;11.32;10.93;;;23.50;99.90;;;;;;5040693;22;20229;-66
2023/07/11 05:33:13;;;;;;;11.35;10.73;;;23.60;99.90;;;;;;5029035;28;20211;-66
2023/07/11 05:35:46;;;;;;;10.93;10.52;;;23.60;99.90;;;;;;5030516;28;20219;-65
2023/07/11 05:38:14;;;;;;;10.85;10.45;;;23.70;99.90;;;;;;5028335;28;20196;-67
2023/07/11 05:40:43;;;;;;;10.48;10.07;;;23.90;99.90;;;;;;5032338;28;20225;-67
2023/07/11 05:43:10;;;;;;;10.80;10.40;;;23.90;99.90;;;;;;5033446;28;20716;-66
2023/07/11 05:45:37;;;;;;;10.13;9.80;;;24.10;99.90;;;;;;5030876;28;20203;-67
2023/07/11 05:48:04;;;;;;;11.88;11.48;;;24.10;99.90;;;;;;5016737;28;20216;-67
2023/07/11 05:50:31;;;;;;;10.52;10.13;;;24.30;99.90;;;;;;5024129;28;20236;-66
2023/07/11 05:52:58;;;;;;;10.30;10.00;;;24.40;99.90;;;;;;5026050;28;20200;-66
2023/07/11 05:55:25;;;;;;;10.65;10.25;;;24.50;99.90;;;;;;5032206;28;20228;-67
2023/07/11 05:57:53;;;;;;;11.15;10.75;;;24.60;99.90;;;;;;5025305;28;20288;-66
2023/07/11 06:00:21;;;;;;;10.65;10.25;;;24.80;99.90;;;;;;5025766;28;20335;-67
2023/07/11 06:02:48;;;;;;;10.48;10.07;;;24.90;99.90;;;;;;5032834;28;20695;-67
2023/07/11 06:05:15;;;;;;;10.25;9.93;;;25.00;99.90;;;;;;5030272;28;20204;-68
2023/07/11 06:07:43;;;;;;;10.10;9.70;;;25.10;99.90;;;;;;5031049;28;20707;-67
2023/07/11 06:10:10;;;;;;;10.40;10.00;;;25.20;99.90;;;;;;5029085;28;20263;-67
2023/07/11 06:12:37;;;;;;;9.90;9.50;;;25.40;99.90;;;;;;5035458;28;20208;-67
2023/07/11 06:15:06;;;;;;;9.82;9.52;;;25.50;99.90;;;;;;5034560;28;20220;-67
2023/07/11 06:17:33;;;;;;;9.68;9.27;;;25.70;99.90;;;;;;5033890;28;20205;-67
2023/07/11 06:20:00;;;;;;;9.60;9.30;;;25.80;99.90;;;;;;5033642;28;20271;-68
2023/07/11 06:22:27;;;;;;;10.23;9.82;;;25.90;99.90;;;;;;5033327;28;20550;-68
2023/07/11 06:24:54;;;;;;;10.13;9.73;;;26.10;99.90;;;;;;5033607;28;20220;-68
2023/07/11 06:27:20;;;;;;;9.75;9.35;;;26.20;99.90;;;;;;5034038;28;20201;-65
2023/07/11 06:29:47;;;;;;;9.43;9.13;;;26.20;99.90;;;;;;5032658;28;20258;-67
2023/07/11 06:32:16;;;;;;;9.07;8.77;;;26.40;99.90;;;;;;5033102;28;20232;-68
2023/07/11 06:34:42;;;;;;;8.15;7.85;;;26.30;99.90;;;;;;5034412;28;20869;-68
2023/07/11 06:37:11;;;;;;;8.77;8.48;;;26.30;99.90;;;;;;5034050;28;20197;-66
2023/07/11 06:39:38;;;;;;;8.85;8.55;;;26.50;99.90;;;;;;5033334;28;20632;-68
2023/07/11 06:42:05;;;;;;;9.90;9.50;;;26.70;99.90;;;;;;5031505;28;20209;-65
2023/07/11 06:44:32;;;;;;;9.82;9.50;;;26.70;99.90;;;;;;5032346;28;20207;-68
2023/07/11 06:46:59;;;;;;;9.00;8.70;;;26.50;99.90;;;;;;5027033;28;20227;-65
2023/07/11 06:49:27;;;;;;;9.82;9.43;;;26.60;99.90;;;;;;5030336;28;20233;-69
2023/07/11 06:51:54;;;;;;;10.60;10.20;;;26.80;99.90;;;;;;5031072;28;20208;-67
2023/07/11 06:54:21;;;;;;;10.88;10.48;;;26.60;99.90;;;;;;5030567;28;20586;-67
2023/07/11 06:56:48;;;;;;;10.18;9.82;;;26.40;99.90;;;;;;5031343;28;20201;-67
2023/07/11 06:59:20;;;;;;;10.77;10.27;;;26.40;99.90;;;;;;5026920;28;20697;-66
2023/07/11 07:01:47;;;;;;;10.15;9.85;;;26.40;99.90;;;;;;5031863;28;20208;-66
2023/07/11 07:04:14;;;;;;;10.23;9.82;;;26.40;99.90;;;;;;5032878;28;20215;-66
2023/07/11 07:06:43;;;;;;;10.35;9.95;;;26.60;99.90;;;;;;5031503;28;20197;-67
2023/07/11 07:09:10;;;;;;;10.57;10.18;;;26.50;99.90;;;;;;5030638;28;20229;-68
2023/07/11 07:11:38;;;;;;;11.25;10.85;;;26.60;99.90;;;;;;5025845;28;20211;-66
2023/07/11 07:14:08;;;;;;;10.48;10.07;;;26.70;99.90;;;;;;5032316;28;20846;-67
2023/07/11 07:16:36;;;;;;;10.55;10.15;;;26.80;99.90;;;;;;5031017;28;20216;-67
2023/07/11 07:19:03;;;;;;;13.30;12.70;;;26.80;99.90;;;;;;5030537;28;20449;-69
2023/07/11 07:21:30;;;;;;;10.57;10.13;;;27.00;99.90;;;;;;5030748;28;20201;-67
2023/07/11 07:23:59;;;;;;;11.15;10.75;;;27.10;99.90;;;;;;5031334;28;20196;-67
2023/07/11 07:26:26;;;;;;;10.68;10.27;;;27.10;99.90;;;;;;5031487;28;20200;-67
2023/07/11 07:28:53;;;;;;;11.20;10.80;;;27.00;99.90;;;;;;5025937;28;20216;-66
2023/07/11 07:31:20;;;;;;;11.18;10.68;;;27.00;99.90;;;;;;5029447;28;20646;-69
2023/07/11 07:33:47;;;;;;;10.20;9.80;;;27.30;99.90;;;;;;5029740;28;20207;-67
2023/07/11 07:36:14;;;;;;;10.80;10.40;;;27.50;99.90;;;;;;5027779;28;20231;-67
2023/07/11 07:38:41;;;;;;;10.18;9.77;;;27.60;99.90;;;;;;5030411;28;20268;-66
2023/07/11 07:41:11;;;;;;;10.45;10.05;;;27.70;99.90;;;;;;5028076;28;20228;-66
2023/07/11 07:43:40;;;;;;;10.20;9.80;;;27.90;99.90;;;;;;5028822;28;20639;-66
2023/07/11 07:46:08;;;;;;;9.93;9.57;;;28.00;99.90;;;;;;5025057;28;20201;-65
2023/07/11 07:48:35;;;;;;;10.88;10.35;;;28.00;99.90;;;;;;5032670;28;20208;-66
2023/07/11 07:51:03;;;;;;;10.15;9.75;;;28.10;99.90;;;;;;5029538;28;20777;-65
2023/07/11 07:53:30;;;;;;;9.25;8.95;;;28.10;99.90;;;;;;5027891;28;20205;-67
2023/07/11 07:56:03;;;;;;;8.93;8.52;;;28.30;99.90;;;;;;5030395;28;20228;-67
2023/07/11 07:58:31;;;;;;;10.70;10.30;;;28.50;99.90;;;;;;5030516;28;20201;-67
2023/07/11 08:00:58;;;;;;;11.52;11.13;;;28.40;99.90;;;;;;5027020;28;20573;-67
2023/07/11 08:03:25;;;;;;;8.98;8.68;;;28.20;99.90;;;;;;5030630;28;20224;-67
2023/07/11 08:05:54;;;;;;;9.10;8.80;;;28.20;99.90;;;;;;5030557;28;20585;-68
2023/07/11 08:08:21;;;;;;;9.32;9.00;;;28.30;99.90;;;;;;5029361;28;20197;-68
2023/07/11 08:10:48;;;;;;;9.27;8.88;;;28.50;99.90;;;;;;5023512;28;20311;-68
2023/07/11 08:13:15;;;;;;;9.70;9.30;;;28.50;99.90;;;;;;5029050;28;20238;-68
2023/07/11 08:15:43;;;;;;;10.00;9.68;;;28.70;99.90;;;;;;5027921;28;20323;-68
2023/07/11 08:18:10;;;;;;;9.73;9.32;;;29.00;99.90;;;;;;5032856;28;20212;-68
2023/07/11 08:20:38;;;;;;;10.18;9.77;;;29.30;99.90;;;;;;5029691;28;20219;-66
2023/07/11 08:23:05;;;;;;;11.15;10.75;;;29.50;99.90;;;;;;5030592;28;20265;-66
2023/07/11 08:25:32;;;;;;;13.02;12.52;;;29.60;99.90;;;;;;5023753;28;20197;-67
2023/07/11 08:27:59;;;;;;;11.25;10.85;;;29.70;99.90;;;;;;5023573;28;20679;-66
2023/07/11 08:30:26;;;;;;;11.65;11.25;;;29.70;99.90;;;;;;5025005;28;20239;-67
2023/07/11 08:32:54;;;;;;;10.45;10.05;;;29.90;99.90;;;;;;5018280;28;20204;-69
2023/07/11 08:35:21;;;;;;;10.43;10.02;;;30.10;99.90;;;;;;5023250;28;20235;-66
2023/07/11 08:37:48;;;;;;;10.90;10.50;;;30.00;99.90;;;;;;5028396;28;20211;-67
2023/07/11 08:40:20;;;;;;;11.43;11.02;;;30.00;99.90;;;;;;5046054;28;20307;-69
2023/07/11 08:42:48;;;;;;;10.90;10.50;;;30.20;99.90;;;;;;5049046;28;20279;-68
2023/07/11 08:45:20;;;;;;;9.80;9.50;;;30.20;99.90;;;;;;5040784;28;20219;-68
2023/07/11 08:48:00;;;;;;;10.38;9.98;;;30.50;99.90;;;;;;5031233;28;20181;-69
2023/07/11 08:50:31;;;;;;;10.52;10.07;;;30.50;99.90;;;;;;5029199;28;20228;-68
2023/07/11 08:53:06;;;;;;;10.00;9.65;;;30.60;99.90;;;;;;5030137;28;20205;-67
2023/07/11 08:55:37;;;;;;;9.60;9.20;;;30.60;99.90;;;;;;5030667;28;20232;-67
2023/07/11 08:58:11;;;;;;;9.50;9.20;;;30.60;99.90;;;;;;5030541;28;20208;-67
2023/07/11 09:00:40;;;;;;;10.25;9.88;;;30.50;99.90;;;;;;5029377;28;20243;-66
2023/07/11 09:03:16;;;;;;;10.10;9.75;;;30.40;99.90;;;;;;5029996;28;20215;-67
2023/07/11 09:05:47;;;;;;;10.43;10.02;;;30.60;99.90;;;;;;5030400;28;20581;-67
2023/07/11 09:08:16;;;;;;;10.23;9.82;;;30.90;99.90;;;;;;5030786;28;20185;-68
2023/07/11 09:10:50;;;;;;;10.18;9.77;;;31.10;99.90;;;;;;5030414;28;20236;-68
2023/07/11 09:13:43;;;;;;;9.40;9.10;;;31.50;99.90;;;;;;5039468;28;20715;-67
2023/07/11 09:16:21;;;;;;;9.18;8.88;;;31.70;99.90;;;;;;5044572;28;20209;-68
2023/07/11 09:19:00;;;;;;;10.05;9.65;;;31.80;99.90;;;;;;5044499;28;20276;-69
2023/07/11 09:21:36;;;;;;;8.98;8.68;;;31.80;99.90;;;;;;5042033;28;20279;-68
2023/07/11 09:24:14;;;;;;;10.15;9.75;;;31.90;99.90;;;;;;5036230;28;20220;-69
2023/07/11 09:26:47;;;;;;;8.80;8.40;;;32.00;99.90;;;;;;5034279;28;20196;-67
2023/07/11 09:29:16;;;;;;;11.45;11.05;;;32.20;99.90;;;;;;5031841;28;20232;-68
2023/07/11 09:31:52;;;;;;;10.00;9.63;;;32.30;99.90;;;;;;5033406;28;20209;-66
2023/07/11 09:34:24;;;;;;;14.73;14.13;;;32.40;99.90;;;;;;5036246;28;20200;-65
2023/07/11 09:36:51;;;;;;;12.65;12.25;;;32.60;99.90;;;;;;5033958;28;20209;-67
2023/07/11 09:39:27;;;;;;;13.20;12.70;;;32.50;99.90;;;;;;5032185;28;20319;-67
2023/07/11 09:41:59;;;;;;;11.35;10.85;;;32.30;99.90;;;;;;5031689;28;20211;-67
2023/07/11 09:44:26;;;;;;;11.32;10.93;;;32.30;99.90;;;;;;5028763;28;20205;-68
2023/07/11 09:46:53;;;;;;;12.85;12.35;;;32.40;99.90;;;;;;5033692;28;20299;-67
2023/07/11 09:49:24;;;;;;;14.00;13.48;;;32.50;99.90;;;;;;5032503;28;20322;-67
2023/07/11 09:51:55;;;;;;;11.48;11.07;;;32.50;99.90;;;;;;5033609;28;20276;-66
2023/07/11 09:54:24;;;;;;;11.43;11.02;;;32.30;99.90;;;;;;5030401;28;20610;-69
2023/07/11 09:56:51;;;;;;;14.93;14.32;;;32.40;99.90;;;;;;5033344;28;20216;-69
2023/07/11 09:59:21;;;;;;;17.92;17.23;;;32.60;99.90;;;;;;5033068;28;20230;-66
2023/07/11 10:01:53;;;;;;;31.02;29.45;;;32.50;99.90;;;;;;5033174;28;20215;-68
2023/07/11 10:04:24;;;;;;;11.80;11.40;;;32.30;99.90;;;;;;5033226;28;20207;-67
2023/07/11 10:06:57;;;;;;;13.30;12.80;;;32.20;99.90;;;;;;5033176;28;20189;-67
2023/07/11 10:09:26;;;;;;;12.18;11.77;;;32.20;99.90;;;;;;5032052;28;20268;-67
2023/07/11 10:11:55;;;;;;;12.40;11.90;;;32.30;99.90;;;;;;5031084;28;20705;-69
2023/07/11 10:14:26;;;;;;;14.52;13.93;;;32.30;99.90;;;;;;5033718;28;20208;-66
2023/07/11 10:16:54;;;;;;;11.45;10.98;;;32.30;99.90;;;;;;5034287;28;20216;-67
2023/07/11 10:19:22;;;;;;;12.55;12.05;;;32.50;99.90;;;;;;5033431;28;20232;-66
2023/07/11 10:21:51;;;;;;;11.43;11.00;;;32.90;99.90;;;;;;5033324;28;20212;-66
2023/07/11 10:24:22;;;;;;;10.80;10.40;;;33.10;99.90;;;;;;5033307;28;20209;-68
2023/07/11 10:26:52;;;;;;;10.70;10.30;;;33.10;99.90;;;;;;5033218;28;20205;-67
2023/07/11 10:29:22;;;;;;;19.02;18.25;;;33.20;99.90;;;;;;5031888;28;20267;-68
2023/07/11 10:31:54;;;;;;;10.40;10.00;;;33.50;99.90;;;;;;5032560;28;20231;-68
2023/07/11 10:34:27;;;;;;;11.13;10.65;;;33.40;99.90;;;;;;5032835;28;20304;-68
2023/07/11 10:37:01;;;;;;;10.07;9.68;;;33.40;99.90;;;;;;5032333;28;20220;-67
2023/07/11 10:39:33;;;;;;;10.57;10.18;;;33.40;99.90;;;;;;5030876;28;20764;-68
2023/07/11 10:42:06;;;;;;;12.02;11.52;;;33.50;99.90;;;;;;5033092;28;20185;-67
2023/07/11 10:44:38;;;;;;;9.73;9.43;;;33.40;99.90;;;;;;5035781;28;20275;-68
2023/07/11 10:47:05;;;;;;;10.93;10.55;;;33.40;99.90;;;;;;5039602;28;20209;-68
2023/07/11 10:49:41;;;;;;;10.73;10.32;;;33.50;99.90;;;;;;5039759;28;20240;-68
2023/07/11 10:52:19;;;;;;;10.35;9.95;;;33.70;99.90;;;;;;5036127;28;20195;-67
2023/07/11 10:54:53;;;;;;;27.35;26.23;;;33.90;99.90;;;;;;5034319;28;20216;-67
2023/07/11 10:57:35;;;;;;;11.30;10.90;;;33.90;99.90;;;;;;5033466;28;20217;-69
2023/07/11 11:00:06;;;;;;;10.57;10.18;;;33.90;99.90;;;;;;5032895;28;20316;-68
2023/07/11 11:02:41;;;;;;;22.05;21.10;;;34.10;99.90;;;;;;5032765;28;20291;-67
2023/07/11 11:05:21;;;;;;;9.65;9.30;;;34.20;99.90;;;;;;5033051;28;20208;-69
2023/07/11 11:07:55;;;;;;;9.38;9.02;;;34.30;99.90;;;;;;5033883;28;20200;-69
2023/07/11 11:10:33;;;;;;;14.38;13.85;;;34.40;99.90;;;;;;5032195;28;20238;-68
2023/07/11 11:13:07;;;;;;;13.57;13.05;;;34.60;99.90;;;;;;5032784;28;20312;-69
2023/07/11 11:15:43;;;;;;;8.75;8.45;;;34.50;99.90;;;;;;5032766;28;20193;-67
2023/07/11 11:18:29;;;;;;;9.18;8.88;;;34.70;99.90;;;;;;5032709;28;20184;-67
2023/07/11 11:21:06;;;;;;;10.75;10.35;;;34.70;99.90;;;;;;5032066;28;20235;-67
2023/07/11 11:23:48;;;;;;;11.88;11.40;;;34.40;99.90;;;;;;5039525;28;20224;-68
2023/07/11 11:26:24;;;;;;;9.23;8.85;;;34.20;99.90;;;;;;5032766;28;20211;-67
2023/07/11 11:29:01;;;;;;;9.20;8.80;;;34.10;99.90;;;;;;5032094;28;20730;-68
2023/07/11 11:31:30;;;;;;;10.82;10.43;;;34.20;99.90;;;;;;5052740;22;20216;-66
2023/07/11 11:34:20;;;;;;;7.90;7.60;;;34.40;99.90;;;;;;5044702;28;20204;-66
2023/07/11 11:36:58;;;;;;;9.20;8.90;;;34.50;99.90;;;;;;5038019;28;20709;-66
2023/07/11 11:39:41;;;;;;;8.45;8.15;;;34.70;99.90;;;;;;5032533;28;20307;-65
2023/07/11 11:42:20;;;;;;;10.23;9.77;;;34.90;99.90;;;;;;5033287;28;20224;-68
2023/07/11 11:44:52;;;;;;;10.10;9.70;;;35.00;99.90;;;;;;5035368;28;20199;-65
2023/07/11 11:47:20;;;;;;;50.88;48.42;;;35.20;99.90;;;;;;5036792;28;20203;-65
2023/07/11 11:49:49;;;;;;;8.65;8.35;;;34.90;99.90;;;;;;5033287;28;20639;-67
2023/07/11 11:52:17;;;;;;;20.60;19.85;;;34.80;99.90;;;;;;5033708;28;20714;-69
2023/07/11 11:54:47;;;;;;;41.67;39.88;;;34.90;99.90;;;;;;5017238;28;20205;-66
2023/07/11 11:57:20;;;;;;;15.13;14.63;;;35.00;99.90;;;;;;5013445;28;20233;-72
2023/07/11 11:59:47;;;;;;;85.88;81.35;;;35.00;99.90;;;;;;5012609;28;20205;-67
2023/07/11 12:02:18;;;;;;;14.25;13.75;;;35.00;99.90;;;;;;5013313;28;20335;-66
2023/07/11 12:05:16;;;;;;;21.70;20.90;;;35.00;99.90;;;;;;5014004;28;20189;-64
2023/07/11 12:07:45;;;;;;;13.88;13.38;;;35.40;99.90;;;;;;4994626;28;20202;-65
2023/07/11 12:10:18;;;;;;;14.02;13.52;;;35.40;99.90;;;;;;4994615;28;20308;-68
2023/07/11 12:13:26;;;;;;;14.75;14.15;;;35.50;99.90;;;;;;4993756;28;20248;-65
2023/07/11 12:15:55;;;;;;;14.13;13.63;;;35.50;99.90;;;;;;4993838;28;20198;-65
2023/07/11 12:18:41;;;;;;;12.35;11.95;;;35.60;99.90;;;;;;4993443;28;20225;-64
2023/07/11 12:21:31;;;;;;;11.57;11.18;;;35.70;99.90;;;;;;4992773;28;20238;-69
2023/07/11 12:24:20;;;;;;;14.77;14.27;;;35.90;99.90;;;;;;4993561;28;20616;-66
2023/07/11 12:26:46;;;;;;;9.95;9.65;;;36.10;99.90;;;;;;4993176;28;20289;-71
2023/07/11 12:29:39;;;;;;;17.55;16.85;;;36.10;99.90;;;;;;4991645;28;20218;-67
2023/07/11 12:32:39;;;;;;;10.57;10.18;;;36.00;99.90;;;;;;5010420;28;20241;-65
2023/07/11 12:35:19;;;;;;;13.07;12.57;;;36.10;99.90;;;;;;5012871;28;20248;-66
2023/07/11 12:38:07;;;;;;;10.60;10.20;;;36.10;99.90;;;;;;5013088;28;20220;-67
2023/07/11 12:40:44;;;;;;;9.63;9.23;;;36.10;99.90;;;;;;5012372;28;20213;-67
2023/07/11 12:43:19;;;;;;;10.50;10.13;;;36.20;99.90;;;;;;5013261;28;20205;-68
2023/07/11 12:45:50;;;;;;;10.65;10.25;;;36.30;99.90;;;;;;5012681;28;20292;-69
2023/07/11 12:48:20;;;;;;;9.40;9.10;;;36.40;99.90;;;;;;5012210;28;20209;-66